createdAt,value
2023-04-03T00:02:04.816Z,5.68
2023-04-03T00:04:35.414Z,5.55
2023-04-03T00:07:02.302Z,5.47
2023-04-03T00:09:32.146Z,5.57
2023-04-03T00:11:59.130Z,5.52
2023-04-03T00:14:26.085Z,5.53
2023-04-03T00:16:53.599Z,5.51
2023-04-03T00:19:29.529Z,5.59
2023-04-03T00:21:57.008Z,5.42
2023-04-03T00:24:24.056Z,5.41
2023-04-03T00:26:51.079Z,5.33
2023-04-03T00:29:17.965Z,5.34
2023-04-03T00:31:45.057Z,5.38
2023-04-03T00:34:12.902Z,5.41
2023-04-03T00:36:40.439Z,5.31
2023-04-03T00:39:07.663Z,5.30
2023-04-03T00:41:34.891Z,5.28
2023-04-03T00:44:19.524Z,5.21
2023-04-03T00:46:49.975Z,5.22
2023-04-03T00:49:17.775Z,5.25
2023-04-03T00:51:48.133Z,5.19
2023-04-03T00:54:15.759Z,5.10
2023-04-03T00:56:42.803Z,5.11
2023-04-03T00:59:22.721Z,5.14
2023-04-03T01:01:54.986Z,4.98
2023-04-03T01:04:37.179Z,5.02
2023-04-03T01:07:28.649Z,4.91
2023-04-03T01:10:00.554Z,5.01
2023-04-03T01:12:39.940Z,5.01
2023-04-03T01:18:20.719Z,4.93
2023-04-03T01:21:20.849Z,4.89
2023-04-03T01:24:29.438Z,4.80
2023-04-03T01:27:09.365Z,4.74
2023-04-03T01:29:37.292Z,4.73
2023-04-03T01:32:10.933Z,4.74
2023-04-03T01:34:47.614Z,4.58
2023-04-03T01:37:27.536Z,4.62
2023-04-03T01:40:43.410Z,4.60
2023-04-03T01:42:58.763Z,4.60
2023-04-03T01:49:03.227Z,4.55
2023-04-03T01:51:33.834Z,4.56
2023-04-03T01:54:14.946Z,4.46
2023-04-03T01:57:09.755Z,4.40
2023-04-03T01:59:49.189Z,4.37
2023-04-03T02:02:31.662Z,4.27
2023-04-03T02:05:04.871Z,4.28
2023-04-03T02:07:44.699Z,4.27
2023-04-03T02:10:21.828Z,4.22
2023-04-03T02:13:36.949Z,4.24
2023-04-03T02:16:34.336Z,4.25
2023-04-03T02:19:02.295Z,4.18
2023-04-03T02:21:29.823Z,4.18
2023-04-03T02:25:02.759Z,4.19
2023-04-03T02:27:06.271Z,4.22
2023-04-03T02:29:51.334Z,4.09
2023-04-03T02:36:00.682Z,4.11
2023-04-03T02:38:41.690Z,4.06
2023-04-03T02:45:15.040Z,4.02
2023-04-03T02:47:44.428Z,3.88
2023-04-03T02:50:21.089Z,3.85
2023-04-03T02:52:48.984Z,3.78
2023-04-03T02:55:37.496Z,3.83
2023-04-03T03:00:59.863Z,3.81
2023-04-03T03:09:30.960Z,3.73
2023-04-03T03:12:01.691Z,3.77
2023-04-03T03:14:29.427Z,3.73
2023-04-03T03:17:13.728Z,3.65
2023-04-03T03:20:31.197Z,3.67
2023-04-03T03:23:31.616Z,3.60
2023-04-03T03:26:26.109Z,3.65
2023-04-03T03:28:58.043Z,3.62
2023-04-03T03:34:14.935Z,3.57
2023-04-03T03:36:42.351Z,3.50
2023-04-03T03:39:08.993Z,3.42
2023-04-03T03:41:37.322Z,3.38
2023-04-03T03:44:04.347Z,3.40
2023-04-03T03:46:31.999Z,3.47
2023-04-03T03:48:59.090Z,3.47
2023-04-03T03:51:26.710Z,3.54
2023-04-03T03:54:22.214Z,3.45
2023-04-03T03:56:47.070Z,3.43
2023-04-03T03:59:15.237Z,3.41
2023-04-03T04:01:42.401Z,3.46
2023-04-03T04:04:09.265Z,3.47
2023-04-03T04:06:36.199Z,3.48
2023-04-03T04:09:02.946Z,3.50
2023-04-03T04:11:29.707Z,3.45
2023-04-03T04:13:56.517Z,3.44
2023-04-03T04:16:24.260Z,3.39
2023-04-03T04:18:51.350Z,3.41
2023-04-03T04:21:18.721Z,3.36
2023-04-03T04:23:48.324Z,3.38
2023-04-03T04:26:15.707Z,3.49
2023-04-03T04:28:42.686Z,3.52
2023-04-03T04:31:10.046Z,3.59
2023-04-03T04:33:37.056Z,3.68
2023-04-03T04:36:04.223Z,3.73
2023-04-03T04:38:31.160Z,3.81
2023-04-03T04:41:01.547Z,3.90
2023-04-03T04:43:28.473Z,4.03
2023-04-03T04:46:11.221Z,4.04
2023-04-03T04:48:38.392Z,4.06
2023-04-03T04:51:05.575Z,4.12
2023-04-03T04:53:36.325Z,4.25
2023-04-03T04:56:03.948Z,4.33
2023-04-03T04:58:31.047Z,4.28
2023-04-03T05:01:03.761Z,4.38
2023-04-03T05:03:31.065Z,4.42
2023-04-03T05:05:58.904Z,4.57
2023-04-03T05:08:28.327Z,4.75
2023-04-03T05:10:56.395Z,4.80
2023-04-03T05:13:23.587Z,4.88
2023-04-03T05:15:53.999Z,4.92
2023-04-03T05:18:21.278Z,5.04
2023-04-03T05:20:51.717Z,5.10
2023-04-03T05:23:24.824Z,5.18
2023-04-03T05:25:54.749Z,5.22
2023-04-03T05:28:24.025Z,5.35
2023-04-03T05:30:56.404Z,5.56
2023-04-03T05:33:27.510Z,5.92
2023-04-03T05:36:05.394Z,6.20
2023-04-03T05:38:35.905Z,6.52
2023-04-03T05:41:03.053Z,6.79
2023-04-03T05:43:30.077Z,6.94
2023-04-03T05:45:57.004Z,7.09
2023-04-03T05:48:24.003Z,7.24
2023-04-03T05:50:51.397Z,7.46
2023-04-03T05:53:26.423Z,7.65
2023-04-03T05:55:53.346Z,7.83
2023-04-03T05:58:20.194Z,7.98
2023-04-03T06:00:46.930Z,8.21
2023-04-03T06:03:14.234Z,8.36
2023-04-03T06:05:41.246Z,8.47
2023-04-03T06:08:17.100Z,8.57
2023-04-03T06:10:47.925Z,8.69
2023-04-03T06:13:20.786Z,8.88
2023-04-03T06:15:48.095Z,9.02
2023-04-03T06:18:28.016Z,9.13
2023-04-03T06:20:54.832Z,9.22
2023-04-03T06:23:22.222Z,9.45
2023-04-03T06:25:49.090Z,9.77
2023-04-03T06:28:15.956Z,9.86
2023-04-03T06:30:44.972Z,9.97
2023-04-03T06:33:29.060Z,10.09
2023-04-03T06:36:00.254Z,10.23
2023-04-03T06:38:31.713Z,10.25
2023-04-03T06:40:59.660Z,10.34
2023-04-03T06:43:26.383Z,10.62
2023-04-03T06:45:53.459Z,10.82
2023-04-03T06:48:20.453Z,10.96
2023-04-03T06:50:47.408Z,11.02
2023-04-03T06:53:14.556Z,11.24
2023-04-03T06:55:42.337Z,11.43
2023-04-03T06:58:09.242Z,11.67
2023-04-03T07:00:35.964Z,11.93
2023-04-03T07:03:02.996Z,12.14
2023-04-03T07:05:30.012Z,12.44
2023-04-03T07:07:57.135Z,12.71
2023-04-03T07:10:23.837Z,12.85
2023-04-03T07:12:54.221Z,13.01
2023-04-03T07:15:21.633Z,13.16
2023-04-03T07:17:48.647Z,13.27
2023-04-03T07:20:16.361Z,13.46
2023-04-03T07:22:43.382Z,13.59
2023-04-03T07:25:11.922Z,13.72
2023-04-03T07:27:38.710Z,13.85
2023-04-03T07:30:09.297Z,13.99
2023-04-03T07:32:36.386Z,14.11
2023-04-03T07:35:13.114Z,14.22
2023-04-03T07:37:40.188Z,14.40
2023-04-03T07:40:09.905Z,14.43
2023-04-03T07:42:37.468Z,14.60
2023-04-03T07:45:05.172Z,14.72
2023-04-03T07:47:32.765Z,14.79
2023-04-03T07:50:00.033Z,14.97
2023-04-03T07:52:29.871Z,15.12
2023-04-03T07:54:57.898Z,15.14
2023-04-03T07:57:25.918Z,15.09
2023-04-03T07:59:53.123Z,14.96
2023-04-03T08:02:22.920Z,14.77
2023-04-03T08:04:53.049Z,14.83
2023-04-03T08:07:19.907Z,15.04
2023-04-03T08:09:46.575Z,15.11
2023-04-03T08:12:16.110Z,15.29
2023-04-03T08:14:52.087Z,15.43
2023-04-03T08:17:18.816Z,15.40
2023-04-03T08:19:45.781Z,15.57
2023-04-03T08:22:12.674Z,15.56
2023-04-03T08:24:48.859Z,15.30
2023-04-03T08:27:23.623Z,15.23
2023-04-03T08:29:50.959Z,15.28
2023-04-03T08:32:17.653Z,15.31
2023-04-03T08:34:44.740Z,15.49
2023-04-03T08:37:23.104Z,15.78
2023-04-03T08:40:03.996Z,15.75
2023-04-03T08:42:57.113Z,15.63
2023-04-03T08:45:45.225Z,15.72
2023-04-03T08:48:23.275Z,15.75
2023-04-03T08:51:03.065Z,15.96
2023-04-03T08:53:35.400Z,16.04
2023-04-03T08:56:12.335Z,15.84
2023-04-03T08:58:57.250Z,15.84
2023-04-03T09:01:45.344Z,16.15
2023-04-03T09:04:20.780Z,16.28
2023-04-03T09:06:53.992Z,16.28
2023-04-03T09:09:35.531Z,16.34
2023-04-03T09:12:10.576Z,16.37
2023-04-03T09:14:43.224Z,16.42
2023-04-03T09:17:40.248Z,16.57
2023-04-03T09:20:25.437Z,16.62
2023-04-03T09:22:56.672Z,16.84
2023-04-03T09:25:32.205Z,16.89
2023-04-03T09:28:00.743Z,17.03
2023-04-03T09:30:28.612Z,17.02
2023-04-03T09:32:59.829Z,17.27
2023-04-03T09:35:47.503Z,17.53
2023-04-03T09:38:18.848Z,17.67
2023-04-03T09:41:49.620Z,17.77
2023-04-03T09:44:31.194Z,17.66
2023-04-03T09:47:31.193Z,17.72
2023-04-03T09:50:16.160Z,17.82
2023-04-03T09:52:45.324Z,17.81
2023-04-03T09:55:19.513Z,17.80
2023-04-03T09:57:47.741Z,17.45
2023-04-03T10:00:27.052Z,17.32
2023-04-03T10:02:57.019Z,16.91
2023-04-03T10:05:34.791Z,17.09
2023-04-03T10:08:35.989Z,17.13
2023-04-03T10:11:15.138Z,17.16
2023-04-03T10:14:02.784Z,17.17
2023-04-03T10:16:46.816Z,17.19
2023-04-03T10:19:22.657Z,17.20
2023-04-03T10:22:00.419Z,17.13
2023-04-03T10:25:01.642Z,17.12
2023-04-03T10:27:46.244Z,17.07
2023-04-03T10:30:22.978Z,17.05
2023-04-03T10:33:02.138Z,16.89
2023-04-03T10:35:54.206Z,16.71
2023-04-03T10:38:38.558Z,16.58
2023-04-03T10:41:22.066Z,16.57
2023-04-03T10:44:07.606Z,16.46
2023-04-03T10:46:44.286Z,16.40
2023-04-03T10:49:32.622Z,16.33
2023-04-03T10:52:28.798Z,16.13
2023-04-03T10:54:58.395Z,15.92
2023-04-03T10:57:26.722Z,15.72
2023-04-03T11:00:05.822Z,15.66
2023-04-03T11:02:47.222Z,15.61
2023-04-03T11:05:27.760Z,15.60
2023-04-03T11:07:57.982Z,15.55
2023-04-03T11:10:36.899Z,15.48
2023-04-03T11:13:14.659Z,15.49
2023-04-03T11:15:42.322Z,15.44
2023-04-03T11:18:21.147Z,15.45
2023-04-03T11:21:02.190Z,15.44
2023-04-03T11:23:48.978Z,15.33
2023-04-03T11:26:23.692Z,15.24
2023-04-03T11:28:57.528Z,15.15
2023-04-03T11:31:36.563Z,15.19
2023-04-03T11:34:18.086Z,15.31
2023-04-03T11:36:55.066Z,15.36
2023-04-03T11:39:39.739Z,15.37
2023-04-03T11:42:35.728Z,15.25
2023-04-03T11:45:29.972Z,15.01
2023-04-03T11:48:16.667Z,14.94
2023-04-03T11:50:51.515Z,14.84
2023-04-03T11:53:18.577Z,14.86
2023-04-03T11:55:51.188Z,14.86
2023-04-03T11:58:20.536Z,14.87
2023-04-03T12:00:53.447Z,14.85
2023-04-03T12:03:30.314Z,14.81
2023-04-03T12:06:17.944Z,14.85
2023-04-03T12:09:02.749Z,14.82
2023-04-03T12:11:35.222Z,14.58
2023-04-03T12:14:02.454Z,14.42
2023-04-03T12:16:47.186Z,13.97
2023-04-03T12:19:22.258Z,13.61
2023-04-03T12:21:59.496Z,13.42
2023-04-03T12:24:34.208Z,13.24
2023-04-03T12:27:01.474Z,13.03
2023-04-03T12:29:34.245Z,12.85
2023-04-03T12:32:33.879Z,12.71
2023-04-03T12:35:07.686Z,12.67
2023-04-03T12:37:49.810Z,12.63
2023-04-03T12:40:49.752Z,12.61
2023-04-03T12:43:51.636Z,12.62
2023-04-03T12:46:27.988Z,12.69
2023-04-03T12:48:58.168Z,12.72
2023-04-03T12:51:41.434Z,12.81
2023-04-03T12:54:43.539Z,12.98
2023-04-03T12:57:22.047Z,13.05
2023-04-03T12:59:50.103Z,13.05
2023-04-03T13:05:24.897Z,13.14
2023-04-03T13:08:00.241Z,13.05
2023-04-03T13:10:27.638Z,13.00
2023-04-03T13:12:58.682Z,12.95
2023-04-03T13:15:31.250Z,12.96
2023-04-03T13:17:58.755Z,13.00
2023-04-03T13:20:33.077Z,13.08
2023-04-03T13:23:13.960Z,13.10
2023-04-03T13:25:50.743Z,13.12
2023-04-03T13:28:25.938Z,13.13
2023-04-03T13:31:08.449Z,13.09
2023-04-03T13:33:41.095Z,13.13
2023-04-03T13:36:19.174Z,13.07
2023-04-03T13:38:46.529Z,13.05
2023-04-03T13:41:33.573Z,13.12
2023-04-03T13:44:24.609Z,12.91
2023-04-03T13:46:53.424Z,12.80
2023-04-03T13:49:30.233Z,12.68
2023-04-03T13:52:07.430Z,12.50
2023-04-03T13:54:38.868Z,12.41
2023-04-03T13:57:15.433Z,12.31
2023-04-03T13:59:45.796Z,12.19
2023-04-03T14:02:23.424Z,12.06
2023-04-03T14:04:59.430Z,12.01
2023-04-03T14:07:27.511Z,11.94
2023-04-03T14:10:05.399Z,11.97
2023-04-03T14:12:46.880Z,11.93
2023-04-03T14:15:21.586Z,11.93
2023-04-03T14:17:48.917Z,11.86
2023-04-03T14:20:22.849Z,11.87
2023-04-03T14:22:56.122Z,11.89
2023-04-03T14:25:29.512Z,11.92
2023-04-03T14:27:57.670Z,11.94
2023-04-03T14:30:33.225Z,11.94
2023-04-03T14:33:12.050Z,11.99
2023-04-03T14:35:43.271Z,11.90
2023-04-03T14:38:32.002Z,11.91
2023-04-03T14:41:16.072Z,11.93
2023-04-03T14:43:45.334Z,11.88
2023-04-03T14:46:56.039Z,11.85
2023-04-03T14:49:27.599Z,11.82
2023-04-03T14:56:05.719Z,11.65
2023-04-03T14:58:33.195Z,11.59
2023-04-03T15:01:03.631Z,11.65
2023-04-03T15:03:47.194Z,11.62
2023-04-03T15:06:16.104Z,11.62
2023-04-03T15:08:51.595Z,11.59
2023-04-03T15:11:19.280Z,11.60
2023-04-03T15:13:50.333Z,11.55
2023-04-03T15:16:21.943Z,11.46
2023-04-03T15:18:52.396Z,11.43
2023-04-03T15:21:23.200Z,11.42
2023-04-03T15:24:07.984Z,11.39
2023-04-03T15:26:42.423Z,11.34
2023-04-03T15:29:16.877Z,11.31
2023-04-03T15:31:47.633Z,11.29
2023-04-03T15:34:23.343Z,11.23
2023-04-03T15:36:58.582Z,11.17
2023-04-03T15:39:40.914Z,11.16
2023-04-03T15:42:07.987Z,11.11
2023-04-03T15:44:36.514Z,11.06
2023-04-03T15:47:07.851Z,11.05
2023-04-03T15:49:36.352Z,11.03
2023-04-03T15:52:32.208Z,11.00
2023-04-03T15:55:30.048Z,10.95
2023-04-03T15:57:50.618Z,10.88
2023-04-03T16:00:45.594Z,10.84
2023-04-03T16:03:17.616Z,10.83
2023-04-03T16:08:52.490Z,10.78
2023-04-03T16:11:29.330Z,10.70
2023-04-03T16:14:07.038Z,10.75
2023-04-03T16:16:41.286Z,10.75
2023-04-03T16:19:13.221Z,10.75
2023-04-03T16:21:44.633Z,10.78
2023-04-03T16:24:19.278Z,10.78
2023-04-03T16:26:48.049Z,10.83
2023-04-03T16:29:36.970Z,10.76
2023-04-03T16:32:14.210Z,10.73
2023-04-03T16:34:42.029Z,10.73
2023-04-03T16:37:09.753Z,10.69
2023-04-03T16:39:36.819Z,10.71
2023-04-03T16:42:03.775Z,10.77
2023-04-03T16:44:34.547Z,10.74
2023-04-03T16:47:05.611Z,10.74
2023-04-03T16:50:53.424Z,10.70
2023-04-03T16:53:28.102Z,10.68
2023-04-03T16:55:59.987Z,10.60
2023-04-03T16:59:09.741Z,10.56
2023-04-03T17:01:45.253Z,10.48
2023-04-03T17:04:22.783Z,10.40
2023-04-03T17:07:17.345Z,10.38
2023-04-03T17:10:15.281Z,10.38
2023-04-03T17:12:59.240Z,10.31
2023-04-03T17:16:05.565Z,10.31
2023-04-03T17:18:43.907Z,10.28
2023-04-03T17:24:45.982Z,10.26
2023-04-03T17:27:38.732Z,10.25
2023-04-03T17:30:10.506Z,10.25
2023-04-03T17:32:42.317Z,10.30
2023-04-03T17:36:41.864Z,10.33
2023-04-03T17:39:02.895Z,10.22
2023-04-03T17:41:30.050Z,10.21
2023-04-03T17:44:05.625Z,10.26
2023-04-03T17:47:12.503Z,10.24
2023-04-03T17:49:58.674Z,10.30
2023-04-03T17:52:42.100Z,10.33
2023-04-03T17:55:22.881Z,10.31
2023-04-03T17:59:09.539Z,10.27
2023-04-03T18:12:21.484Z,10.09
2023-04-03T18:19:06.780Z,9.98
2023-04-03T18:23:40.130Z,9.92
2023-04-03T18:26:12.280Z,9.85
2023-04-03T18:28:57.450Z,9.82
2023-04-03T18:32:03.351Z,9.74
2023-04-03T18:34:33.614Z,9.76
2023-04-03T18:37:06.445Z,9.73
2023-04-03T18:39:34.241Z,9.77
2023-04-03T18:42:11.660Z,9.81
2023-04-03T18:44:40.716Z,9.86
2023-04-03T18:47:14.612Z,9.90
2023-04-03T18:52:55.885Z,9.90
2023-04-03T18:55:23.761Z,9.89
2023-04-03T18:58:44.278Z,9.93
2023-04-03T19:01:15.784Z,9.97
2023-04-03T19:03:54.272Z,9.89
2023-04-03T19:06:21.243Z,9.87
2023-04-03T19:08:50.927Z,9.93
2023-04-03T19:12:07.791Z,9.92
2023-04-03T19:14:59.529Z,9.84
2023-04-03T19:17:37.473Z,9.82
2023-04-03T19:20:08.747Z,9.82
2023-04-03T19:23:13.622Z,9.83
2023-04-03T19:25:41.607Z,9.80
2023-04-03T19:28:19.379Z,9.79
2023-04-03T19:30:52.198Z,9.79
2023-04-03T19:33:30.615Z,9.79
2023-04-03T19:36:12.484Z,9.84
2023-04-03T19:38:51.790Z,9.87
2023-04-03T19:41:40.967Z,9.90
2023-04-03T19:44:09.639Z,9.94
2023-04-03T19:46:56.966Z,9.94
2023-04-03T19:49:25.253Z,9.90
2023-04-03T19:51:59.435Z,9.82
2023-04-03T19:54:37.783Z,9.79
2023-04-03T19:57:09.672Z,9.74
2023-04-03T19:59:43.211Z,9.70
2023-04-03T20:02:29.516Z,9.67
2023-04-03T20:04:58.335Z,9.79
2023-04-03T20:07:55.461Z,9.84
2023-04-03T20:10:29.904Z,9.82
2023-04-03T20:12:59.568Z,9.74
2023-04-03T20:15:27.552Z,9.70
2023-04-03T20:18:07.405Z,9.67
2023-04-03T20:20:44.262Z,9.71
2023-04-03T20:23:21.953Z,9.71
2023-04-03T20:26:05.839Z,9.66
2023-04-03T20:28:46.907Z,9.64
2023-04-03T20:31:24.137Z,9.63
2023-04-03T20:34:08.041Z,9.61
2023-04-03T20:36:36.502Z,9.60
2023-04-03T20:39:15.600Z,9.60
2023-04-03T20:41:46.324Z,9.61
2023-04-03T20:44:20.490Z,9.60
2023-04-03T20:47:11.981Z,9.65
2023-04-03T20:49:44.481Z,9.66
2023-04-03T20:52:14.724Z,9.63
2023-04-03T20:54:49.880Z,9.71
2023-04-03T20:57:23.545Z,9.68
2023-04-03T21:02:40.984Z,9.61
2023-04-03T21:05:15.162Z,9.58
2023-04-03T21:08:24.156Z,9.48
2023-04-03T21:11:32.346Z,9.54
2023-04-03T21:14:40.312Z,9.48
2023-04-03T21:17:08.363Z,9.39
2023-04-03T21:19:40.547Z,9.30
2023-04-03T21:22:11.426Z,9.19
2023-04-03T21:24:39.362Z,9.11
2023-04-03T21:27:25.051Z,9.10
2023-04-03T21:29:53.480Z,9.03
2023-04-03T21:32:21.448Z,8.94
2023-04-03T21:34:48.703Z,8.93
2023-04-03T21:37:16.463Z,8.91
2023-04-03T21:39:45.819Z,8.91
2023-04-03T21:42:13.279Z,8.94
2023-04-03T21:47:30.757Z,8.97
2023-04-03T21:49:59.842Z,8.92
2023-04-03T21:52:28.068Z,8.98
2023-04-03T21:55:00.781Z,9.01
2023-04-03T21:57:29.755Z,9.09
2023-04-03T21:59:57.750Z,9.02
2023-04-03T22:02:27.612Z,8.91
2023-04-03T22:05:10.249Z,8.88
2023-04-03T22:07:47.370Z,8.90
2023-04-03T22:10:26.300Z,8.97
2023-04-03T22:12:56.914Z,9.00
2023-04-03T22:15:27.849Z,8.97
2023-04-03T22:17:55.398Z,8.97
2023-04-03T22:20:38.419Z,8.89
2023-04-03T22:23:06.832Z,8.88
2023-04-03T22:28:22.523Z,8.79
2023-04-03T22:30:50.237Z,8.80
2023-04-03T22:36:22.284Z,8.80
2023-04-03T22:38:50.239Z,8.78
2023-04-03T22:41:18.660Z,8.78
2023-04-03T22:43:49.354Z,8.83
2023-04-03T22:46:20.915Z,8.89
2023-04-03T22:48:51.932Z,8.88
2023-04-03T22:51:21.007Z,8.97
2023-04-03T22:53:49.505Z,8.99
2023-04-03T22:56:23.238Z,8.97
2023-04-03T22:58:52.788Z,9.03
2023-04-03T23:01:23.821Z,9.03
2023-04-03T23:03:52.332Z,9.02
2023-04-03T23:06:23.971Z,9.07
2023-04-03T23:08:51.633Z,9.01
2023-04-03T23:11:19.668Z,8.99
2023-04-03T23:14:00.168Z,9.01
2023-04-03T23:16:28.087Z,9.02
2023-04-03T23:18:58.040Z,8.94
2023-04-03T23:21:25.393Z,8.85
2023-04-03T23:23:55.356Z,8.84
2023-04-03T23:26:27.062Z,8.88
2023-04-03T23:28:59.350Z,8.86
2023-04-03T23:31:29.843Z,8.89
2023-04-03T23:34:00.456Z,8.88
2023-04-03T23:36:28.773Z,8.92
2023-04-03T23:39:16.019Z,8.88
2023-04-03T23:41:48.651Z,8.87
2023-04-03T23:44:17.108Z,8.88
2023-04-03T23:46:44.733Z,8.96
2023-04-03T23:49:12.757Z,8.93
2023-04-03T23:51:40.892Z,8.83
2023-04-03T23:54:16.931Z,8.84
2023-04-03T23:56:44.683Z,8.88
2023-04-03T23:59:12.593Z,8.87
